Time;durP1;ratioP1;P1;durP2;ratioP2;P2;SDS_P1;SDS_P2;PMS_P1;PMS_P2;Temp;Humidity;BMP_temperature;BMP_pressure;BME280_temperature;BME280_humidity;BME280_pressure;Samples;Min_cycle;Max_cycle;Signal;HPM_P1;HPM_P2
2022/10/12 00:01:06;;;;;;;47.58;21.88;;;;;;;15.03;100.00;95071.75;5081043;28;20019;-89
2022/10/12 00:03:33;;;;;;;43.50;22.90;;;;;;;14.99;100.00;95066.25;5097435;28;20088;-88
2022/10/12 00:06:04;;;;;;;38.50;22.05;;;;;;;15.03;100.00;95056.69;5097820;28;20020;-88
2022/10/12 00:08:30;;;;;;;51.28;24.08;;;;;;;14.86;100.00;95064.25;5097651;28;20024;-89
2022/10/12 00:10:55;;;;;;;45.55;24.05;;;;;;;14.75;100.00;95066.19;5080628;28;20051;-90
2022/10/12 00:13:21;;;;;;;45.38;23.60;;;;;;;14.84;100.00;95064.50;5097360;28;20070;-89
2022/10/12 00:15:46;;;;;;;41.05;21.88;;;;;;;14.94;100.00;95063.66;5097526;28;20035;-90
2022/10/12 00:18:12;;;;;;;47.50;23.70;;;;;;;15.00;100.00;95059.13;5097217;28;20051;-90
2022/10/12 00:20:37;;;;;;;40.92;22.77;;;;;;;14.92;100.00;95044.66;5080467;28;20027;-89
2022/10/12 00:23:03;;;;;;;46.38;23.63;;;;;;;14.79;100.00;95054.81;5097470;28;20102;-89
2022/10/12 00:25:29;;;;;;;47.95;23.67;;;;;;;14.75;100.00;95056.41;5097723;28;20031;-89
2022/10/12 00:27:54;;;;;;;43.00;24.75;;;;;;;14.89;100.00;95051.28;5080860;28;20016;-89
2022/10/12 00:30:20;;;;;;;44.38;25.60;;;;;;;14.85;100.00;95052.91;5097186;28;20027;-89
2022/10/12 00:32:45;;;;;;;49.90;26.25;;;;;;;15.00;100.00;95056.47;5080584;28;20020;-90
2022/10/12 00:35:10;;;;;;;49.17;25.70;;;;;;;14.87;100.00;95044.72;5080279;28;20428;-88
2022/10/12 00:37:36;;;;;;;44.05;24.55;;;;;;;15.12;100.00;95044.47;5097195;28;20129;-88
2022/10/12 00:40:01;;;;;;;51.10;25.10;;;;;;;15.21;100.00;95047.28;5097052;28;20052;-90
2022/10/12 00:42:27;;;;;;;40.25;21.83;;;;;;;15.14;100.00;95044.22;5096814;28;20444;-88
2022/10/12 00:44:52;;;;;;;43.03;23.13;;;;;;;15.24;100.00;95048.59;5098446;28;20487;-89
2022/10/12 00:47:31;;;;;;;42.63;23.05;;;;;;;15.26;100.00;95043.81;5080228;28;20023;-90
2022/10/12 00:50:35;;;;;;;43.00;22.25;;;;;;;15.31;100.00;95041.13;5079588;28;20371;-89
2022/10/12 00:53:08;;;;;;;37.90;21.35;;;;;;;15.23;100.00;95047.03;5074547;28;20074;-89
2022/10/12 00:55:40;;;;;;;47.13;22.25;;;;;;;15.21;100.00;95044.66;5096762;28;20441;-89
2022/10/12 00:58:08;;;;;;;38.70;21.58;;;;;;;15.13;100.00;95038.13;5068497;28;20021;-88
2022/10/12 01:00:37;;;;;;;41.97;21.70;;;;;;;15.08;100.00;95038.19;5075534;28;20349;-89
2022/10/12 01:03:07;;;;;;;42.63;23.27;;;;;;;15.07;100.00;95041.09;5066890;28;20122;-89
2022/10/12 01:05:33;;;;;;;40.28;22.30;;;;;;;15.06;100.00;95040.31;5084035;28;20020;-89
2022/10/12 01:07:59;;;;;;;43.78;23.27;;;;;;;15.01;100.00;95045.63;5082931;28;20024;-89
2022/10/12 01:10:25;;;;;;;40.70;21.88;;;;;;;15.01;100.00;95039.59;5096352;28;20134;-89
2022/10/12 01:12:50;;;;;;;47.63;22.73;;;;;;;14.91;100.00;95040.44;5079780;28;20055;-89
2022/10/12 01:15:16;;;;;;;36.28;21.80;;;;;;;14.95;100.00;95038.84;5079054;28;20118;-89
2022/10/12 01:18:02;;;;;;;45.22;21.73;;;;;;;14.96;100.00;95043.06;5079712;28;20026;-89
2022/10/12 01:20:52;;;;;;;48.45;21.92;;;;;;;14.74;100.00;95040.88;5096198;28;20034;-88
2022/10/12 01:23:20;;;;;;;40.65;21.63;;;;;;;14.72;100.00;95035.88;5097234;28;20050;-89
2022/10/12 01:26:14;;;;;;;45.42;22.65;;;;;;;14.87;100.00;95027.03;5096289;28;20028;-89
2022/10/12 01:29:17;;;;;;;49.90;24.02;;;;;;;14.79;100.00;95041.63;5096032;28;20047;-89
2022/10/12 01:31:54;;;;;;;39.50;21.77;;;;;;;14.90;100.00;95025.69;5096194;28;20024;-88
2022/10/12 01:34:27;;;;;;;39.03;21.85;;;;;;;14.84;100.00;95033.66;5079897;28;20077;-90
2022/10/12 01:37:02;;;;;;;50.88;25.83;;;;;;;14.56;100.00;95033.31;5079264;28;20020;-89
2022/10/12 01:39:34;;;;;;;42.35;22.83;;;;;;;14.81;100.00;95039.50;5079057;28;20020;-89
2022/10/12 01:42:03;;;;;;;45.05;23.05;;;;;;;14.75;100.00;95035.31;5079522;28;20020;-88
2022/10/12 01:44:31;;;;;;;40.60;23.13;;;;;;;14.62;100.00;95036.72;5096059;28;20030;-89
2022/10/12 01:47:12;;;;;;;37.85;20.98;;;;;;;14.81;100.00;95033.41;5096238;28;20161;-88
2022/10/12 01:49:38;;;;;;;44.63;23.60;;;;;;;14.51;100.00;95022.03;5095815;28;20032;-88
2022/10/12 01:52:24;;;;;;;45.72;24.25;;;;;;;14.83;100.00;95026.81;5095970;28;20039;-89
2022/10/12 01:55:07;;;;;;;44.03;23.73;;;;;;;14.84;100.00;95012.53;5096246;28;20043;-89
2022/10/12 01:57:35;;;;;;;41.00;22.15;;;;;;;14.70;100.00;95027.41;5095814;28;20024;-89
2022/10/12 02:00:05;;;;;;;43.78;24.20;;;;;;;14.88;100.00;95014.63;5096657;28;20085;-89
2022/10/12 02:02:39;;;;;;;47.15;22.92;;;;;;;14.93;100.00;95020.63;5095868;28;20459;-89
2022/10/12 02:05:13;;;;;;;41.47;20.95;;;;;;;15.04;100.00;95015.28;5097025;28;20456;-89
2022/10/12 02:07:50;;;;;;;37.75;20.42;;;;;;;14.86;100.00;95011.47;5096687;28;20024;-89
2022/10/12 02:10:39;;;;;;;39.92;22.85;;;;;;;14.80;100.00;95019.44;5078996;28;20047;-89
2022/10/12 02:13:06;;;;;;;44.92;22.63;;;;;;;14.80;100.00;95016.81;5095152;28;20395;-89
2022/10/12 02:15:32;;;;;;;37.75;21.00;;;;;;;14.79;100.00;95009.97;5095744;28;20446;-88
2022/10/12 02:17:59;;;;;;;35.80;20.05;;;;;;;14.84;100.00;95006.47;5079084;28;20016;-89
2022/10/12 02:20:25;;;;;;;34.40;19.73;;;;;;;14.84;100.00;95006.47;5078973;28;20061;-89
2022/10/12 02:22:51;;;;;;;40.08;19.88;;;;;;;14.72;100.00;95008.72;5095904;28;20170;-89
2022/10/12 02:25:21;;;;;;;43.47;23.27;;;;;;;14.50;100.00;95015.19;5079338;28;20421;-89
2022/10/12 02:28:02;;;;;;;40.25;21.98;;;;;;;14.61;100.00;95019.31;5081447;28;20119;-89
2022/10/12 02:30:34;;;;;;;42.25;21.23;;;;;;;14.56;100.00;95006.94;5082804;28;20031;-89
2022/10/12 02:33:16;;;;;;;43.03;21.83;;;;;;;14.66;100.00;94998.16;5099652;28;20047;-89
2022/10/12 02:35:49;;;;;;;40.47;21.20;;;;;;;14.64;100.00;94994.25;5099635;28;20024;-89
2022/10/12 02:38:19;;;;;;;45.00;22.27;;;;;;;14.69;100.00;94991.56;5099286;28;20071;-89
2022/10/12 02:40:51;;;;;;;37.10;20.98;;;;;;;14.75;100.00;94989.69;5099254;28;20336;-88
2022/10/12 02:43:31;;;;;;;44.28;22.55;;;;;;;14.60;100.00;94999.28;5082519;28;20024;-90
2022/10/12 02:45:59;;;;;;;40.20;21.55;;;;;;;14.62;100.00;95005.06;5087504;28;20025;-90
2022/10/12 02:48:24;;;;;;;44.40;22.77;;;;;;;14.59;100.00;94999.56;5062182;28;20333;-90
2022/10/12 02:50:55;;;;;;;36.58;20.45;;;;;;;14.71;100.00;94989.44;5062467;28;20020;-90
2022/10/12 02:53:22;;;;;;;37.85;21.42;;;;;;;14.76;100.00;94992.03;5078913;28;20032;-89
2022/10/12 02:55:53;;;;;;;47.90;22.02;;;;;;;14.75;100.00;95000.25;5062361;28;20028;-90
2022/10/12 02:58:19;;;;;;;39.25;21.65;;;;;;;14.63;100.00;95011.09;5062280;28;20035;-90
2022/10/12 03:00:44;;;;;;;41.20;21.65;;;;;;;14.60;100.00;95015.09;5078363;28;20024;-89
2022/10/12 03:03:10;;;;;;;41.83;23.60;;;;;;;14.26;100.00;95007.97;5078737;28;20039;-90
2022/10/12 03:05:36;;;;;;;51.90;25.45;;;;;;;14.20;100.00;95012.50;5061897;28;20051;-90
2022/10/12 03:08:01;;;;;;;41.33;23.13;;;;;;;14.36;100.00;95009.75;5078532;28;20117;-89
2022/10/12 03:10:30;;;;;;;40.78;23.02;;;;;;;14.43;100.00;95020.75;5078296;28;20020;-90
2022/10/12 03:12:55;;;;;;;45.00;23.65;;;;;;;14.35;100.00;95016.88;5087406;28;20090;-89
2022/10/12 03:15:20;;;;;;;50.47;23.65;;;;;;;14.32;100.00;95011.34;5092249;28;20047;-89
2022/10/12 03:17:46;;;;;;;43.60;23.67;;;;;;;14.45;100.00;95020.50;5073742;28;20020;-90
2022/10/12 03:20:12;;;;;;;43.45;23.80;;;;;;;14.42;100.00;95017.34;5085743;28;20442;-90
2022/10/12 03:22:37;;;;;;;49.95;25.98;;;;;;;14.28;100.00;95011.13;5061584;28;20020;-89
2022/10/12 03:25:03;;;;;;;45.35;24.00;;;;;;;14.47;100.00;95007.81;5061827;28;20124;-90
2022/10/12 03:27:28;;;;;;;50.60;24.20;;;;;;;14.46;100.00;95008.88;5077850;28;20028;-90
2022/10/12 03:29:54;;;;;;;43.15;23.77;;;;;;;14.51;100.00;95004.38;5061097;28;20028;-90
2022/10/12 03:32:19;;;;;;;45.45;23.73;;;;;;;14.61;100.00;94992.16;5078207;28;20032;-90
2022/10/12 03:34:45;;;;;;;49.10;23.67;;;;;;;14.73;100.00;94991.81;5061387;28;20025;-90
2022/10/12 03:37:10;;;;;;;43.53;24.70;;;;;;;14.46;100.00;94995.72;5061611;28;20094;-90
2022/10/12 03:39:35;;;;;;;49.42;24.98;;;;;;;14.42;100.00;94991.00;5069069;28;20432;-90
2022/10/12 03:42:01;;;;;;;48.70;26.52;;;;;;;14.23;100.00;94987.44;5098209;28;20077;-90
2022/10/12 03:44:26;;;;;;;56.47;26.70;;;;;;;14.16;100.00;94993.00;5097856;28;20032;-90
2022/10/12 03:46:52;;;;;;;45.92;25.05;;;;;;;14.44;100.00;94990.69;5097931;28;20455;-90
2022/10/12 03:49:17;;;;;;;49.22;23.45;;;;;;;14.47;100.00;95000.69;5080919;28;20089;-90
2022/10/12 03:51:43;;;;;;;45.13;24.02;;;;;;;14.47;100.00;94999.91;5098107;28;20130;-90
2022/10/12 03:54:08;;;;;;;48.88;25.88;;;;;;;13.89;100.00;95002.13;5080989;28;20433;-89
2022/10/12 03:56:33;;;;;;;66.28;29.20;;;;;;;13.68;100.00;95001.44;5081185;28;20024;-90
2022/10/12 03:58:59;;;;;;;56.38;28.25;;;;;;;13.78;100.00;95009.31;5097623;28;20039;-90
2022/10/12 04:01:24;;;;;;;53.50;27.45;;;;;;;13.97;100.00;95006.03;5097581;28;20024;-90
2022/10/12 04:03:50;;;;;;;57.53;28.88;;;;;;;14.08;100.00;95006.78;5097543;28;20031;-90
2022/10/12 04:06:15;;;;;;;48.75;25.27;;;;;;;14.02;100.00;95005.22;5097507;28;20024;-89
2022/10/12 04:08:41;;;;;;;51.60;26.27;;;;;;;14.08;100.00;95012.81;5081000;28;20402;-91
2022/10/12 04:11:06;;;;;;;49.00;25.63;;;;;;;13.93;100.00;95011.09;5080958;28;20432;-90
2022/10/12 04:13:32;;;;;;;59.83;27.92;;;;;;;13.81;100.00;95006.13;5097402;28;20069;-90
2022/10/12 04:16:04;;;;;;;63.05;28.27;;;;;;;14.00;100.00;95008.91;5080601;28;20085;-90
2022/10/12 04:18:30;;;;;;;53.58;27.33;;;;;;;14.06;100.00;95003.59;5097483;28;20077;-91
2022/10/12 04:20:55;;;;;;;54.92;26.15;;;;;;;14.18;100.00;95006.69;5080455;28;20355;-90
2022/10/12 04:23:21;;;;;;;57.15;27.27;;;;;;;14.14;100.00;95005.69;5080466;28;20459;-90
2022/10/12 04:25:46;;;;;;;50.80;25.63;;;;;;;14.07;100.00;95013.88;5080440;28;20019;-91
2022/10/12 04:28:17;;;;;;;46.22;25.00;;;;;;;14.22;100.00;95015.66;5080315;28;20028;-90
2022/10/12 04:30:46;;;;;;;43.80;24.15;;;;;;;14.31;100.00;95015.84;5097022;28;20031;-90
2022/10/12 04:33:12;;;;;;;45.15;25.15;;;;;;;14.21;100.00;95011.44;5097240;28;20499;-91
2022/10/12 04:35:37;;;;;;;49.85;24.77;;;;;;;14.02;100.00;95006.03;5097136;28;20028;-90
2022/10/12 04:38:03;;;;;;;55.28;26.15;;;;;;;14.09;100.00;95014.41;5096954;28;20032;-91
2022/10/12 04:40:28;;;;;;;47.90;25.50;;;;;;;14.24;100.00;95015.34;5096760;28;20111;-90
2022/10/12 04:42:55;;;;;;;56.67;29.25;;;;;;;14.27;100.00;95014.81;5080045;28;20119;-91
2022/10/12 04:45:21;;;;;;;56.38;26.27;;;;;;;14.45;100.00;95010.72;5079947;28;20395;-91
2022/10/12 04:47:46;;;;;;;47.00;23.98;;;;;;;14.45;100.00;95010.72;5096696;28;20464;-90
2022/10/12 04:50:12;;;;;;;52.55;23.17;;;;;;;14.39;100.00;95009.19;5096628;28;20035;-91
2022/10/12 04:52:37;;;;;;;53.38;23.98;;;;;;;14.18;100.00;95016.47;5079901;28;20034;-91
2022/10/12 04:55:03;;;;;;;47.38;24.20;;;;;;;14.20;100.00;95017.78;5079966;28;20028;-91
2022/10/12 04:57:29;;;;;;;42.65;23.35;;;;;;;14.31;100.00;95015.84;5080023;28;20035;-90
2022/10/12 04:59:57;;;;;;;43.13;24.02;;;;;;;14.31;100.00;95020.31;5096676;28;20032;-90
2022/10/12 05:02:23;;;;;;;43.22;23.60;;;;;;;14.41;100.00;95014.97;5079466;28;20164;-90
2022/10/12 05:04:48;;;;;;;43.92;23.83;;;;;;;14.49;100.00;95026.78;5079646;28;20463;-91
2022/10/12 05:07:14;;;;;;;46.67;22.67;;;;;;;14.43;100.00;95020.75;5079624;28;20055;-90
2022/10/12 05:09:39;;;;;;;47.40;24.75;;;;;;;14.55;100.00;95013.28;5096490;28;20032;-89
2022/10/12 05:12:05;;;;;;;44.65;23.30;;;;;;;14.61;100.00;95019.31;5096621;28;20031;-91
2022/10/12 05:14:31;;;;;;;43.13;24.75;;;;;;;14.37;100.00;95013.97;5079877;28;20440;-89
2022/10/12 05:16:56;;;;;;;51.28;25.30;;;;;;;14.43;100.00;95010.22;5097018;28;20031;-91
2022/10/12 05:19:21;;;;;;;48.83;24.63;;;;;;;14.46;100.00;95014.94;5096120;28;20023;-90
2022/10/12 05:21:47;;;;;;;44.42;24.88;;;;;;;14.33;100.00;95021.63;5096130;28;20027;-90
2022/10/12 05:24:13;;;;;;;49.13;25.48;;;;;;;14.24;100.00;95025.91;5095996;28;20028;-90
2022/10/12 05:26:38;;;;;;;46.35;24.33;;;;;;;14.27;100.00;95023.50;5096319;28;20081;-90
2022/10/12 05:29:03;;;;;;;48.13;25.63;;;;;;;14.49;100.00;95024.94;5078907;28;20039;-90
2022/10/12 05:31:29;;;;;;;55.75;26.10;;;;;;;14.59;100.00;95024.09;5096221;28;20085;-90
2022/10/12 05:33:54;;;;;;;49.38;26.48;;;;;;;14.42;100.00;95027.09;5096201;28;20060;-88
2022/10/12 05:36:20;;;;;;;51.75;27.02;;;;;;;14.40;100.00;95021.31;5096409;28;20077;-88
2022/10/12 05:38:46;;;;;;;52.45;26.33;;;;;;;14.31;100.00;95031.66;5079457;28;20024;-89
2022/10/12 05:41:11;;;;;;;46.60;24.92;;;;;;;14.53;100.00;95033.88;5079354;28;20110;-89
2022/10/12 05:43:37;;;;;;;48.45;23.60;;;;;;;14.32;100.00;95037.72;5096337;28;20032;-88
2022/10/12 05:46:04;;;;;;;49.53;25.27;;;;;;;14.27;100.00;95043.78;5093279;28;20092;-89
2022/10/12 05:48:30;;;;;;;49.25;24.60;;;;;;;14.29;100.00;95028.53;5059453;28;20525;-88
2022/10/12 05:50:55;;;;;;;49.13;22.70;;;;;;;14.61;100.00;95026.44;5059195;28;20050;-88
2022/10/12 05:53:22;;;;;;;48.45;24.35;;;;;;;14.68;100.00;95032.94;5067576;28;20031;-88
2022/10/12 05:55:55;;;;;;;42.60;22.45;;;;;;;14.89;100.00;95034.66;5096157;28;20055;-89
2022/10/12 05:58:23;;;;;;;;;;;;;;;14.95;100.00;95039.63;5096261;28;20023;-89
2022/10/12 06:00:49;;;;;;;48.72;25.35;;;;;;;14.63;100.00;95032.22;5095836;28;19950;-89
2022/10/12 06:03:15;;;;;;;51.70;24.52;;;;;;;14.77;100.00;95032.41;5095434;28;20063;-88
2022/10/12 06:05:41;;;;;;;53.97;26.65;;;;;;;14.72;100.00;95040.38;5095830;28;20456;-89
2022/10/12 06:08:07;;;;;;;44.38;24.25;;;;;;;14.83;100.00;95036.56;5095765;28;20035;-88
2022/10/12 06:10:34;;;;;;;44.00;22.90;;;;;;;15.21;100.00;95038.59;5097140;28;20340;-89
2022/10/12 06:13:00;;;;;;;46.28;22.88;;;;;;;15.34;100.00;95045.81;5096763;28;20156;-89
2022/10/12 06:15:25;;;;;;;43.78;23.75;;;;;;;15.42;100.00;95041.78;5079096;28;20054;-88
2022/10/12 06:18:03;;;;;;;40.63;23.58;;;;;;;15.64;100.00;95043.94;5095689;28;20310;-89
2022/10/12 06:20:28;;;;;;;43.28;23.50;;;;;;;15.64;100.00;95045.78;5095486;28;20460;-89
2022/10/12 06:22:53;;;;;;;42.95;23.23;;;;;;;15.72;100.00;95052.28;5078481;28;20089;-88
2022/10/12 06:25:19;;;;;;;41.72;22.23;;;;;;;15.72;100.00;95058.38;5079047;28;20472;-88
2022/10/12 06:27:44;;;;;;;39.33;21.80;;;;;;;15.77;100.00;95057.50;5095573;28;20031;-89
2022/10/12 06:30:11;;;;;;;45.17;24.23;;;;;;;15.31;100.00;95059.59;5078660;28;20027;-89
2022/10/12 06:32:36;;;;;;;47.60;25.50;;;;;;;14.82;100.00;95062.16;5078912;28;20490;-90
2022/10/12 06:35:02;;;;;;;46.20;25.20;;;;;;;15.24;100.00;95062.56;5095506;28;20040;-89
2022/10/12 06:37:28;;;;;;;42.72;22.42;;;;;;;15.62;100.00;95056.63;5095723;28;20036;-90
2022/10/12 06:39:54;;;;;;;52.30;23.80;;;;;;;15.47;100.00;95062.88;5095101;28;20070;-90
2022/10/12 06:42:20;;;;;;;39.13;21.00;;;;;;;15.95;100.00;95059.44;5078583;28;20027;-90
2022/10/12 06:44:45;;;;;;;38.08;20.23;;;;;;;16.18;100.00;95062.28;5078544;28;20046;-90
2022/10/12 06:47:11;;;;;;;43.47;21.02;;;;;;;16.19;100.00;95068.38;5078498;28;20032;-90
2022/10/12 06:49:36;;;;;;;48.28;22.83;;;;;;;16.42;100.00;95073.88;5095173;28;20392;-90
2022/10/12 06:52:02;;;;;;;39.10;21.65;;;;;;;16.64;100.00;95078.56;5078405;28;20449;-90
2022/10/12 06:54:27;;;;;;;38.15;19.88;;;;;;;16.72;100.00;95074.50;5095266;28;20032;-90
2022/10/12 06:56:53;;;;;;;56.22;19.65;;;;;;;15.84;100.00;95073.81;5094988;28;20032;-89
2022/10/12 06:59:21;;;;;;;37.65;19.73;;;;;;;16.02;100.00;95064.38;5095249;28;20050;-90
2022/10/12 07:01:47;;;;;;;47.83;21.98;;;;;;;16.18;100.00;95064.94;5078937;28;20070;-90
2022/10/12 07:04:12;;;;;;;40.67;20.85;;;;;;;16.74;100.00;95067.06;5096202;28;20052;-89
2022/10/12 07:06:38;;;;;;;34.25;18.80;;;;;;;17.08;100.00;95068.63;5095262;28;20039;-90
2022/10/12 07:09:04;;;;;;;33.92;18.52;;;;;;;17.25;100.00;95062.78;5095105;28;20028;-89
2022/10/12 07:11:29;;;;;;;39.63;21.40;;;;;;;17.29;100.00;95061.13;5095212;28;20027;-90
2022/10/12 07:13:56;;;;;;;37.05;20.63;;;;;;;17.25;100.00;95070.75;5097069;28;20085;-90
2022/10/12 07:16:21;;;;;;;38.88;19.65;;;;;;;16.95;100.00;95064.88;5081944;28;20173;-90
2022/10/12 07:18:47;;;;;;;34.53;18.88;;;;;;;17.49;100.00;95072.41;5098407;28;20020;-89
2022/10/12 07:21:12;;;;;;;37.30;19.48;;;;;;;17.65;100.00;95068.41;5081986;28;20493;-90
2022/10/12 07:23:39;;;;;;;38.03;21.02;;;;;;;17.64;100.00;95072.13;5098358;28;20035;-90
2022/10/12 07:26:07;;;;;;;36.00;18.95;;;;;;;17.65;100.00;95071.06;5098916;28;20055;-90
2022/10/12 07:28:34;;;;;;;32.42;16.63;;;;;;;17.29;100.00;95071.72;5098432;28;20028;-90
2022/10/12 07:31:05;;;;;;;35.90;17.85;;;;;;;17.49;100.00;95075.84;5098117;28;20035;-90
2022/10/12 07:33:40;;;;;;;34.38;19.05;;;;;;;17.77;100.00;95077.72;5081229;28;20024;-89
2022/10/12 07:36:06;;;;;;;34.17;18.75;;;;;;;17.78;100.00;95084.59;5098785;28;20059;-90
2022/10/12 07:38:32;;;;;;;33.35;18.45;;;;;;;17.88;100.00;95075.66;5081384;28;20039;-90
2022/10/12 07:41:04;;;;;;;32.97;18.33;;;;;;;17.93;100.00;95086.16;5097886;28;20131;-90
2022/10/12 07:43:32;;;;;;;29.52;17.77;;;;;;;18.01;100.00;95085.47;5081655;28;20051;-90
2022/10/12 07:45:58;;;;;;;35.22;18.63;;;;;;;18.15;100.00;95090.78;5081788;28;20023;-89
2022/10/12 07:48:23;;;;;;;36.65;20.30;;;;;;;17.84;100.00;95085.28;5081356;28;20383;-91
2022/10/12 07:50:49;;;;;;;28.70;17.10;;;;;;;18.02;100.00;95095.03;5098007;28;20445;-90
2022/10/12 07:53:15;;;;;;;31.00;17.88;;;;;;;18.20;100.00;95090.66;5097802;28;20093;-90
2022/10/12 07:55:40;;;;;;;35.53;19.58;;;;;;;17.69;100.00;95084.50;5081090;28;20020;-90
2022/10/12 07:58:05;;;;;;;33.25;17.30;;;;;;;18.18;100.00;95081.44;5080876;28;20052;-90
2022/10/12 08:00:31;;;;;;;29.55;17.13;;;;;;;18.52;100.00;95090.78;5097592;28;20391;-90
2022/10/12 08:02:57;;;;;;;30.52;16.90;;;;;;;18.61;100.00;95088.19;5097521;28;20039;-90
2022/10/12 08:05:23;;;;;;;40.10;18.33;;;;;;;18.76;100.00;95085.19;5097841;28;20106;-90
2022/10/12 08:07:50;;;;;;;31.83;18.70;;;;;;;18.80;100.00;95080.06;5080793;28;20371;-90
2022/10/12 08:10:16;;;;;;;35.17;18.83;;;;;;;18.68;100.00;95077.94;5097343;28;20024;-89
2022/10/12 08:12:43;;;;;;;30.60;18.05;;;;;;;19.01;100.00;95068.94;5097657;28;20080;-90
2022/10/12 08:15:09;;;;;;;31.55;18.50;;;;;;;18.94;100.00;95074.69;5080690;28;20028;-90
2022/10/12 08:17:34;;;;;;;38.88;19.25;;;;;;;19.25;100.00;95081.91;5097324;28;20020;-89
2022/10/12 08:20:00;;;;;;;32.78;18.67;;;;;;;19.44;100.00;95084.34;5098915;28;20031;-90
2022/10/12 08:22:25;;;;;;;39.83;21.90;;;;;;;18.43;100.00;95074.78;5097214;28;20024;-90
2022/10/12 08:24:50;;;;;;;39.15;20.83;;;;;;;18.75;100.00;95070.34;5096807;28;20031;-90
2022/10/12 08:27:16;;;;;;;36.90;21.73;;;;;;;18.86;100.00;95083.38;5097129;28;20027;-90
2022/10/12 08:29:41;;;;;;;39.95;20.73;;;;;;;18.99;100.00;95082.56;5096861;28;20028;-90
2022/10/12 08:32:07;;;;;;;37.40;20.30;;;;;;;18.85;100.00;95076.50;5080341;28;20027;-89
2022/10/12 08:34:32;;;;;;;32.00;20.08;;;;;;;19.06;100.00;95074.94;5097290;28;20027;-89
2022/10/12 08:36:58;;;;;;;34.45;19.73;;;;;;;19.40;100.00;95075.41;5080507;28;20024;-90
2022/10/12 08:39:24;;;;;;;37.80;19.58;;;;;;;19.01;100.00;95071.63;5080041;28;20027;-90
2022/10/12 08:41:55;;;;;;;35.47;17.52;;;;;;;19.69;100.00;95068.78;5097969;28;20411;-90
2022/10/12 08:44:36;;;;;;;28.73;17.17;;;;;;;19.52;100.00;95079.38;5097937;28;20115;-90
2022/10/12 08:47:24;;;;;;;30.30;16.98;;;;;;;19.34;100.00;95069.44;5097033;28;20081;-90
2022/10/12 08:49:50;;;;;;;36.05;17.65;;;;;;;19.13;100.00;95071.84;5093806;28;20444;-90
2022/10/12 08:52:31;;;;;;;33.05;16.95;;;;;;;19.69;100.00;95063.47;5096832;28;20080;-91
2022/10/12 08:55:28;;;;;;;28.95;15.50;;;;;;;20.02;100.00;95070.31;5079925;28;20028;-90
2022/10/12 08:57:54;;;;;;;26.30;14.85;;;;;;;19.96;100.00;95061.69;5093691;28;20039;-91
2022/10/12 09:00:21;;;;;;;30.52;15.23;;;;;;;20.21;100.00;95067.38;5096727;28;20351;-90
2022/10/12 09:03:12;;;;;;;29.63;16.58;;;;;;;20.02;100.00;95068.47;5080003;28;20130;-91
2022/10/12 09:06:23;;;;;;;22.38;14.23;;;;;;;20.08;100.00;95068.28;5096735;28;20024;-90
2022/10/12 09:09:08;;;;;;;27.77;15.18;;;;;;;20.52;100.00;95068.34;5069057;28;20463;-91
2022/10/12 09:11:44;;;;;;;24.20;14.27;;;;;;;20.89;100.00;95071.47;5096594;28;20510;-90
2022/10/12 09:14:19;;;;;;;24.15;13.80;;;;;;;21.02;100.00;95059.84;5097806;28;20036;-90
2022/10/12 09:16:47;;;;;;;26.67;14.15;;;;;;;20.52;100.00;95055.03;5097671;28;20035;-90
2022/10/12 09:19:16;;;;;;;28.17;15.65;;;;;;;20.51;100.00;95066.75;5079363;28;20424;-90
2022/10/12 09:21:42;;;;;;;28.52;14.88;;;;;;;20.77;100.00;95061.44;5096326;28;20024;-89
2022/10/12 09:24:16;;;;;;;39.97;19.27;;;;;;;19.92;100.00;95056.22;5079661;28;20494;-89
2022/10/12 09:26:42;;;;;;;26.27;16.17;;;;;;;20.57;100.00;95052.97;5079354;28;20024;-90
2022/10/12 09:29:17;;;;;;;31.38;17.10;;;;;;;20.60;100.00;95056.91;5079034;28;20032;-90
2022/10/12 09:32:05;;;;;;;29.15;17.10;;;;;;;20.68;100.00;95055.31;5096535;28;20028;-90
2022/10/12 09:34:30;;;;;;;26.33;15.07;;;;;;;20.92;100.00;95054.06;5096115;28;20026;-90
2022/10/12 09:36:56;;;;;;;20.42;12.75;;;;;;;20.89;100.00;95050.16;5095466;28;20115;-89
2022/10/12 09:39:29;;;;;;;19.90;11.93;;;;;;;21.12;100.00;95047.28;5087195;28;20111;-90
2022/10/12 09:41:55;;;;;;;;;;;;;;;21.12;100.00;95055.28;5076013;28;20082;-90
2022/10/12 09:44:28;;;;;;;24.20;11.38;;;;;;;20.87;99.12;95060.34;5075547;28;20268;-88
2022/10/12 09:46:58;;;;;;;21.27;11.27;;;;;;;21.27;100.00;95061.97;5076736;28;20036;-89
2022/10/12 09:49:43;;;;;;;20.00;12.27;;;;;;;21.00;100.00;95062.03;5076107;28;20026;-89
2022/10/12 09:52:09;;;;;;;24.75;12.93;;;;;;;20.88;100.00;95068.03;5076053;28;20413;-90
2022/10/12 09:54:38;;;;;;;17.23;10.70;;;;;;;21.40;97.94;95065.53;5075510;28;20021;-90
2022/10/12 09:57:04;;;;;;;22.48;11.45;;;;;;;21.29;98.07;95065.88;5075317;28;20081;-89
2022/10/12 09:59:42;;;;;;;24.13;11.35;;;;;;;21.32;89.33;95057.25;5059340;28;20078;-90
2022/10/12 10:02:10;;;;;;;27.30;12.45;;;;;;;21.25;97.00;95062.28;5075434;28;20024;-89
2022/10/12 10:04:37;;;;;;;22.10;12.52;;;;;;;20.56;100.00;95061.28;5076803;28;20024;-89
2022/10/12 10:07:18;;;;;;;19.73;12.18;;;;;;;21.28;100.00;95053.66;5059460;28;20064;-90
2022/10/12 10:09:44;;;;;;;21.67;13.10;;;;;;;21.25;100.00;95058.84;5075135;28;20131;-89
2022/10/12 10:12:21;;;;;;;20.48;13.25;;;;;;;21.44;99.85;95064.56;5075504;28;20025;-90
2022/10/12 10:14:49;;;;;;;26.75;13.68;;;;;;;21.62;95.37;95069.84;5075454;28;20029;-90
2022/10/12 10:17:24;;;;;;;24.20;11.93;;;;;;;21.72;90.46;95063.38;5058698;28;20105;-89
2022/10/12 10:19:50;;;;;;;22.13;12.63;;;;;;;21.54;97.57;95060.78;5075680;28;20025;-90
2022/10/12 10:22:17;;;;;;;19.35;12.82;;;;;;;21.50;89.81;95059.84;5075051;28;20028;-89
2022/10/12 10:24:42;;;;;;;22.63;12.68;;;;;;;21.66;96.45;95062.00;5095862;28;20028;-90
2022/10/12 10:27:27;;;;;;;31.50;14.85;;;;;;;21.71;90.26;95067.94;5078702;28;20336;-90
2022/10/12 10:30:07;;;;;;;25.83;14.38;;;;;;;21.52;95.93;95064.84;5078510;28;20499;-89
2022/10/12 10:32:32;;;;;;;27.50;13.05;;;;;;;21.72;98.92;95069.50;5078701;28;20031;-90
2022/10/12 10:35:11;;;;;;;23.00;11.38;;;;;;;21.54;89.68;95066.13;5095220;28;20403;-90
2022/10/12 10:37:42;;;;;;;22.92;10.73;;;;;;;21.45;88.02;95063.47;5096431;28;20028;-89
2022/10/12 10:40:21;;;;;;;29.67;12.88;;;;;;;21.36;91.96;95064.59;5079150;28;20052;-89
2022/10/12 10:42:53;;;;;;;23.67;13.13;;;;;;;21.38;87.21;95059.75;5095430;28;20031;-89
2022/10/12 10:45:57;;;;;;;24.67;12.85;;;;;;;21.53;80.87;95064.56;5095532;28;20024;-90
2022/10/12 10:48:29;;;;;;;23.70;12.82;;;;;;;21.72;87.29;95063.38;5097921;28;20333;-90
2022/10/12 10:51:03;;;;;;;28.38;13.23;;;;;;;21.97;82.22;95066.25;5099166;28;20115;-89
2022/10/12 10:53:51;;;;;;;27.50;12.90;;;;;;;21.63;80.07;95067.94;5099280;28;20024;-90
2022/10/12 10:56:21;;;;;;;25.05;12.85;;;;;;;21.61;80.06;95066.38;5099705;28;20122;-89
2022/10/12 10:58:53;;;;;;;22.45;12.65;;;;;;;21.17;77.95;95057.75;5100249;28;20032;-89
2022/10/12 11:01:22;;;;;;;24.17;12.77;;;;;;;21.41;80.67;95061.78;5082089;28;20064;-91
2022/10/12 11:03:55;;;;;;;29.83;12.27;;;;;;;21.46;78.64;95054.38;5100257;28;20096;-90
2022/10/12 11:06:37;;;;;;;23.58;11.70;;;;;;;21.59;77.27;95051.78;5082359;28;20028;-89
2022/10/12 11:09:12;;;;;;;29.20;12.45;;;;;;;21.05;86.29;95048.53;5098884;28;20122;-89
2022/10/12 11:11:39;;;;;;;32.00;14.55;;;;;;;21.19;82.03;95052.91;5098657;28;20500;-89
2022/10/12 11:14:15;;;;;;;27.85;12.75;;;;;;;21.57;78.87;95051.34;5082209;28;20024;-90
2022/10/12 11:16:57;;;;;;;26.25;13.75;;;;;;;21.79;76.15;95047.66;5098894;28;20526;-90
2022/10/12 11:19:35;;;;;;;27.52;11.63;;;;;;;21.65;83.09;95053.19;5081929;28;20020;-90
2022/10/12 11:22:18;;;;;;;24.52;11.52;;;;;;;21.73;86.73;95044.41;5082140;28;20118;-89